createdAt,value
2023-01-17T00:00:01.577Z,96.73
2023-01-17T00:02:31.298Z,96.41
2023-01-17T00:05:18.412Z,96.45
2023-01-17T00:08:05.795Z,96.23
2023-01-17T00:14:07.738Z,96.69
2023-01-17T00:16:40.338Z,96.77
2023-01-17T00:19:26.839Z,96.47
2023-01-17T00:22:13.367Z,96.47
2023-01-17T00:24:59.826Z,96.20
2023-01-17T00:27:28.064Z,96.18
2023-01-17T00:29:56.297Z,96.20
2023-01-17T00:32:33.199Z,95.72
2023-01-17T00:35:01.688Z,95.86
2023-01-17T00:37:29.996Z,95.93
2023-01-17T00:39:57.823Z,96.10
2023-01-17T00:42:26.047Z,95.89
2023-01-17T00:45:12.649Z,95.89
2023-01-17T00:47:59.128Z,95.93
2023-01-17T00:50:45.715Z,95.78
2023-01-17T00:53:32.281Z,95.98
2023-01-17T00:56:22.951Z,95.93
2023-01-17T00:59:09.607Z,95.87
2023-01-17T01:01:56.316Z,95.90
2023-01-17T01:04:42.922Z,95.79
2023-01-17T01:07:29.877Z,95.97
2023-01-17T01:10:16.439Z,96.06
2023-01-17T01:13:03.032Z,96.09
2023-01-17T01:16:12.189Z,96.21
2023-01-17T01:19:22.201Z,95.93
2023-01-17T01:22:09.588Z,96.13
2023-01-17T01:24:55.979Z,95.75
2023-01-17T01:27:42.604Z,96.06
2023-01-17T01:30:31.683Z,96.28
2023-01-17T01:33:15.189Z,96.15
2023-01-17T01:35:43.675Z,96.33
2023-01-17T01:38:12.001Z,96.09
2023-01-17T01:40:45.164Z,96.32
2023-01-17T01:43:23.107Z,95.92
2023-01-17T01:46:00.021Z,96.13
2023-01-17T01:49:06.043Z,95.91
2023-01-17T01:51:49.220Z,96.06
2023-01-17T01:54:23.704Z,96.30
2023-01-17T01:56:57.945Z,96.14
2023-01-17T02:00:06.351Z,95.68
2023-01-17T02:02:57.756Z,95.90
2023-01-17T02:05:29.400Z,95.96
2023-01-17T02:08:03.212Z,95.96
2023-01-17T02:10:34.727Z,95.68
2023-01-17T02:13:05.997Z,95.56
2023-01-17T02:15:42.052Z,95.14
2023-01-17T02:18:48.132Z,95.31
2023-01-17T02:21:22.823Z,95.11
2023-01-17T02:24:03.214Z,95.16
2023-01-17T02:26:44.906Z,95.09
2023-01-17T02:32:53.299Z,95.33
2023-01-17T02:35:47.374Z,94.90
2023-01-17T02:38:42.524Z,94.79
2023-01-17T02:41:21.149Z,94.70
2023-01-17T02:43:51.206Z,94.64
2023-01-17T02:46:19.509Z,94.71
2023-01-17T02:48:48.923Z,94.71
2023-01-17T02:51:45.203Z,94.51
2023-01-17T02:54:45.189Z,94.62
2023-01-17T03:01:27.112Z,93.87
2023-01-17T03:04:04.118Z,93.77
2023-01-17T03:06:41.474Z,93.90
2023-01-17T03:09:10.665Z,94.05
2023-01-17T03:11:39.037Z,94.12
2023-01-17T03:14:07.405Z,94.32
2023-01-17T03:16:36.337Z,94.07
2023-01-17T03:19:05.169Z,94.26
2023-01-17T03:21:33.666Z,94.37
2023-01-17T03:24:03.210Z,94.39
2023-01-17T03:26:31.838Z,94.37
2023-01-17T03:28:59.779Z,94.47
2023-01-17T03:31:27.755Z,93.85
2023-01-17T03:33:55.732Z,93.89
2023-01-17T03:36:23.799Z,94.06
2023-01-17T03:38:52.282Z,94.13
2023-01-17T03:41:22.188Z,94.05
2023-01-17T03:44:46.500Z,93.93
2023-01-17T03:47:15.092Z,93.91
2023-01-17T03:49:45.376Z,94.13
2023-01-17T03:52:13.748Z,94.06
2023-01-17T03:54:42.037Z,94.06
2023-01-17T03:57:10.723Z,93.68
2023-01-17T03:59:39.243Z,93.49
2023-01-17T04:02:07.475Z,93.46
2023-01-17T04:04:36.112Z,93.47
2023-01-17T04:08:00.500Z,93.53
2023-01-17T04:10:28.624Z,93.59
2023-01-17T04:12:57.330Z,93.68
2023-01-17T04:15:25.664Z,93.63
2023-01-17T04:17:53.774Z,93.71
2023-01-17T04:20:32.264Z,93.53
2023-01-17T04:23:01.161Z,93.39
2023-01-17T04:25:31.337Z,93.36
2023-01-17T04:31:17.455Z,93.56
2023-01-17T04:33:46.019Z,93.65
2023-01-17T04:37:30.008Z,93.96
2023-01-17T04:39:58.405Z,94.07
2023-01-17T04:42:26.753Z,94.20
2023-01-17T04:44:55.195Z,94.41
2023-01-17T04:47:24.459Z,94.14
2023-01-17T04:49:53.681Z,93.96
2023-01-17T04:52:55.067Z,94.12
2023-01-17T04:55:23.719Z,94.02
2023-01-17T04:57:51.939Z,94.03
2023-01-17T05:00:23.907Z,93.87
2023-01-17T05:02:52.360Z,94.05
2023-01-17T05:05:20.890Z,94.24
2023-01-17T05:07:56.515Z,94.33
2023-01-17T05:10:47.241Z,94.82
2023-01-17T05:13:52.216Z,95.06
2023-01-17T05:17:03.414Z,95.19
2023-01-17T05:24:11.793Z,95.09
2023-01-17T05:28:06.145Z,95.04
2023-01-17T05:33:44.433Z,95.58
2023-01-17T05:36:13.682Z,95.54
2023-01-17T05:38:41.936Z,95.57
2023-01-17T05:41:10.739Z,95.53
2023-01-17T05:43:38.964Z,95.78
2023-01-17T05:46:32.337Z,95.80
2023-01-17T05:49:00.866Z,95.87
2023-01-17T05:51:29.562Z,95.96
2023-01-17T05:53:57.685Z,96.04
2023-01-17T05:56:26.162Z,95.95
2023-01-17T05:58:54.144Z,95.71
2023-01-17T06:01:22.275Z,95.99
2023-01-17T06:03:51.161Z,96.04
2023-01-17T06:06:20.608Z,96.28
2023-01-17T06:08:49.141Z,96.30
2023-01-17T06:11:18.728Z,96.19
2023-01-17T06:13:48.863Z,96.01
2023-01-17T06:17:08.317Z,95.77
2023-01-17T06:19:36.903Z,95.47
2023-01-17T06:22:05.551Z,95.68
2023-01-17T06:24:34.091Z,95.62
2023-01-17T06:27:02.407Z,96.09
2023-01-17T06:29:30.558Z,96.30
2023-01-17T06:32:01.463Z,96.41
2023-01-17T06:34:29.928Z,96.17
2023-01-17T06:36:58.151Z,96.30
2023-01-17T06:39:26.950Z,95.78
2023-01-17T06:41:55.206Z,95.92
2023-01-17T06:45:43.305Z,96.36
2023-01-17T06:48:11.441Z,96.24
2023-01-17T06:50:39.457Z,95.84
2023-01-17T06:53:07.813Z,95.57
2023-01-17T06:55:39.594Z,95.62
2023-01-17T06:58:09.484Z,95.60
2023-01-17T07:00:40.302Z,95.79
2023-01-17T07:03:20.580Z,96.02
2023-01-17T07:05:49.333Z,96.27
2023-01-17T07:08:19.372Z,96.45
2023-01-17T07:10:48.491Z,96.21
2023-01-17T07:13:16.751Z,95.97
2023-01-17T07:15:44.689Z,95.90
2023-01-17T07:18:12.614Z,95.68
2023-01-17T07:20:43.935Z,95.35
2023-01-17T07:23:13.000Z,95.54
2023-01-17T07:25:41.032Z,95.59
2023-01-17T07:28:09.192Z,95.67
2023-01-17T07:30:37.285Z,95.71
2023-01-17T07:33:05.567Z,95.67
2023-01-17T07:35:33.628Z,95.55
2023-01-17T07:38:01.698Z,95.45
2023-01-17T07:40:29.796Z,95.24
2023-01-17T07:45:46.372Z,95.32
2023-01-17T07:48:14.257Z,95.40
2023-01-17T07:50:43.003Z,95.41
2023-01-17T07:53:11.479Z,95.63
2023-01-17T07:55:40.100Z,95.70
2023-01-17T07:58:08.171Z,95.87
2023-01-17T08:00:36.146Z,95.86
2023-01-17T08:03:05.850Z,95.57
2023-01-17T08:05:33.842Z,95.41
2023-01-17T08:08:01.723Z,95.17
2023-01-17T08:10:29.733Z,95.52
2023-01-17T08:12:57.633Z,95.44
2023-01-17T08:15:26.733Z,95.22
2023-01-17T08:17:54.739Z,95.35
2023-01-17T08:20:22.656Z,95.37
2023-01-17T08:22:54.559Z,95.37
2023-01-17T08:25:26.762Z,95.44
2023-01-17T08:27:58.836Z,95.26
2023-01-17T08:30:27.480Z,95.38
2023-01-17T08:32:55.775Z,95.30
2023-01-17T08:35:24.126Z,95.27
2023-01-17T08:37:55.058Z,95.38
2023-01-17T08:40:23.954Z,94.91
2023-01-17T08:43:00.286Z,95.18
2023-01-17T08:45:28.708Z,95.28
2023-01-17T08:47:58.839Z,95.54
2023-01-17T08:50:27.309Z,95.09
2023-01-17T08:53:01.091Z,95.34
2023-01-17T08:55:29.435Z,95.32
2023-01-17T08:57:57.441Z,95.43
2023-01-17T09:00:27.228Z,95.56
2023-01-17T09:02:55.219Z,95.18
2023-01-17T09:05:31.268Z,95.20
2023-01-17T09:08:05.033Z,94.57
2023-01-17T09:10:38.754Z,94.50
2023-01-17T09:13:13.747Z,94.92
2023-01-17T09:15:42.109Z,94.80
2023-01-17T09:18:09.990Z,94.35
2023-01-17T09:20:37.987Z,94.20
2023-01-17T09:23:13.501Z,94.25
2023-01-17T09:25:44.742Z,94.59
2023-01-17T09:28:12.785Z,94.07
2023-01-17T09:30:49.353Z,93.86
2023-01-17T09:33:17.911Z,93.97
2023-01-17T09:36:06.899Z,93.96
2023-01-17T09:42:28.109Z,94.11
2023-01-17T09:45:10.458Z,93.33
2023-01-17T09:47:48.985Z,92.36
2023-01-17T09:50:51.221Z,91.93
2023-01-17T09:53:29.281Z,92.99
2023-01-17T09:56:13.242Z,92.69
2023-01-17T10:02:16.774Z,91.73
2023-01-17T10:05:02.911Z,91.09
2023-01-17T10:08:12.089Z,91.20
2023-01-17T10:14:26.683Z,91.02
2023-01-17T10:17:24.404Z,91.10
2023-01-17T10:20:35.239Z,91.22
2023-01-17T10:23:28.101Z,91.95
2023-01-17T10:26:00.092Z,91.76
2023-01-17T10:28:41.980Z,91.49
2023-01-17T10:31:25.152Z,91.34
2023-01-17T10:34:39.745Z,91.40
2023-01-17T10:37:22.956Z,91.39
2023-01-17T10:40:16.205Z,91.19
2023-01-17T10:43:09.201Z,90.80
2023-01-17T10:45:54.549Z,89.33
2023-01-17T10:48:42.485Z,89.68
2023-01-17T10:51:19.505Z,89.88
2023-01-17T10:54:15.154Z,90.31
2023-01-17T10:56:43.434Z,90.31
2023-01-17T10:59:32.108Z,88.58
2023-01-17T11:02:41.850Z,89.12
2023-01-17T11:08:18.025Z,87.44
2023-01-17T11:10:57.386Z,87.28
2023-01-17T11:13:38.201Z,86.89
2023-01-17T11:16:16.727Z,86.48
2023-01-17T11:19:27.889Z,85.25
2023-01-17T11:22:05.453Z,84.17
2023-01-17T11:24:47.274Z,81.98
2023-01-17T11:27:30.486Z,82.64
2023-01-17T11:30:15.967Z,82.34
2023-01-17T11:32:57.585Z,81.56
2023-01-17T11:35:29.391Z,80.18
2023-01-17T11:37:59.310Z,77.50
2023-01-17T11:40:37.578Z,76.37
2023-01-17T11:43:11.280Z,75.63
2023-01-17T11:49:50.635Z,71.23
2023-01-17T11:52:21.275Z,70.20
2023-01-17T11:54:50.916Z,67.46
2023-01-17T11:57:32.897Z,65.72
2023-01-17T12:00:23.404Z,65.08
2023-01-17T12:03:03.453Z,64.06
2023-01-17T12:05:48.360Z,62.52
2023-01-17T12:08:28.332Z,59.56
2023-01-17T12:10:59.106Z,60.10
2023-01-17T12:14:02.888Z,55.86
2023-01-17T12:16:49.369Z,53.17
2023-01-17T12:20:14.979Z,53.67
2023-01-17T12:22:52.908Z,54.63
2023-01-17T12:25:54.591Z,51.48
2023-01-17T12:28:38.243Z,50.92
2023-01-17T12:31:23.239Z,51.43
2023-01-17T12:33:56.576Z,47.04
2023-01-17T12:36:33.244Z,49.44
2023-01-17T12:39:08.051Z,46.15
2023-01-17T12:41:45.725Z,46.36
2023-01-17T12:44:17.534Z,47.52
2023-01-17T12:46:56.267Z,44.71
2023-01-17T12:49:49.160Z,45.76
2023-01-17T12:52:25.034Z,45.37
2023-01-17T12:55:02.817Z,43.07
2023-01-17T12:58:07.080Z,43.22
2023-01-17T13:00:39.101Z,44.15
2023-01-17T13:03:46.927Z,43.58
2023-01-17T13:06:25.071Z,42.50
2023-01-17T13:08:57.928Z,42.04
2023-01-17T13:11:46.079Z,40.73
2023-01-17T13:14:14.127Z,40.39
2023-01-17T13:17:13.141Z,41.22
2023-01-17T13:19:52.147Z,42.37
2023-01-17T13:22:24.117Z,41.86
2023-01-17T13:25:00.436Z,41.94
2023-01-17T13:27:40.396Z,41.25
2023-01-17T13:30:32.757Z,41.74
2023-01-17T13:33:13.142Z,42.23
2023-01-17T13:36:16.888Z,41.22
2023-01-17T13:38:57.677Z,42.66
2023-01-17T13:41:34.778Z,43.37
2023-01-17T13:44:21.663Z,42.92
2023-01-17T13:46:56.684Z,42.99
2023-01-17T13:49:31.678Z,43.49
2023-01-17T13:52:19.735Z,43.80
2023-01-17T13:54:54.933Z,44.53
2023-01-17T13:57:29.192Z,44.81
2023-01-17T14:00:10.522Z,46.43
2023-01-17T14:02:39.192Z,45.07
2023-01-17T14:05:11.625Z,45.11
2023-01-17T14:07:55.966Z,44.54
2023-01-17T14:10:30.606Z,44.40
2023-01-17T14:12:59.117Z,43.49
2023-01-17T14:15:28.820Z,42.78
2023-01-17T14:18:02.397Z,43.82
2023-01-17T14:20:49.961Z,44.46
2023-01-17T14:23:26.255Z,45.01
2023-01-17T14:25:58.120Z,45.06
2023-01-17T14:28:26.092Z,45.49
2023-01-17T14:30:56.486Z,46.06
2023-01-17T14:33:36.077Z,46.47
2023-01-17T14:36:07.834Z,46.44
2023-01-17T14:38:42.897Z,46.44
2023-01-17T14:41:19.326Z,46.61
2023-01-17T14:43:49.615Z,46.70
2023-01-17T14:46:28.491Z,46.93
2023-01-17T14:49:06.157Z,47.19
2023-01-17T14:51:35.532Z,47.58
2023-01-17T14:54:14.646Z,47.91
2023-01-17T14:56:42.534Z,48.54
2023-01-17T14:59:17.446Z,48.81
2023-01-17T15:02:06.702Z,48.97
2023-01-17T15:04:39.670Z,49.19
2023-01-17T15:07:15.939Z,49.95
2023-01-17T15:09:45.222Z,50.15
2023-01-17T15:12:16.493Z,50.27
2023-01-17T15:14:46.633Z,50.75
2023-01-17T15:17:24.823Z,51.50
2023-01-17T15:22:35.349Z,51.79
2023-01-17T15:25:03.764Z,51.79
2023-01-17T15:27:32.286Z,52.39
2023-01-17T15:30:02.437Z,52.39
2023-01-17T15:32:33.324Z,52.54
2023-01-17T15:35:03.000Z,52.42
2023-01-17T15:37:39.152Z,52.95
2023-01-17T15:40:26.167Z,53.14
2023-01-17T15:42:58.739Z,53.48
2023-01-17T15:45:32.554Z,53.67
2023-01-17T15:48:39.153Z,54.58
2023-01-17T15:51:09.405Z,54.39
2023-01-17T15:53:40.160Z,54.18
2023-01-17T15:56:26.019Z,54.17
2023-01-17T15:58:54.040Z,54.34
2023-01-17T16:01:26.977Z,54.75
2023-01-17T16:03:55.642Z,55.08
2023-01-17T16:06:45.391Z,54.97
2023-01-17T16:09:23.947Z,55.65
2023-01-17T16:11:51.844Z,56.35
2023-01-17T16:14:20.050Z,58.69
2023-01-17T16:16:54.298Z,59.03
2023-01-17T16:19:22.703Z,58.10
2023-01-17T16:21:51.621Z,58.39
2023-01-17T16:24:19.779Z,58.84
2023-01-17T16:26:47.692Z,58.94
2023-01-17T16:29:15.691Z,59.17
2023-01-17T16:31:43.538Z,59.11
2023-01-17T16:34:12.918Z,59.14
2023-01-17T16:36:40.946Z,61.25
2023-01-17T16:39:13.565Z,61.23
2023-01-17T16:41:41.610Z,61.85
2023-01-17T16:44:09.880Z,61.76
2023-01-17T16:46:38.729Z,63.86
2023-01-17T16:49:06.770Z,64.38
2023-01-17T16:51:35.008Z,65.29
2023-01-17T16:54:03.020Z,64.39
2023-01-17T16:56:31.248Z,65.01
2023-01-17T16:58:59.186Z,64.60
2023-01-17T17:01:27.360Z,65.78
2023-01-17T17:03:55.362Z,67.50
2023-01-17T17:06:23.342Z,67.11
2023-01-17T17:08:51.367Z,67.42
2023-01-17T17:11:22.860Z,69.08
2023-01-17T17:13:51.878Z,68.06
2023-01-17T17:16:24.624Z,69.83
2023-01-17T17:18:59.756Z,70.51
2023-01-17T17:21:28.947Z,70.46
2023-01-17T17:23:59.453Z,70.21
2023-01-17T17:26:31.406Z,71.06
2023-01-17T17:29:00.738Z,70.58
2023-01-17T17:31:55.388Z,72.50
2023-01-17T17:34:25.850Z,73.00
2023-01-17T17:36:55.676Z,73.64
2023-01-17T17:39:24.169Z,72.90
2023-01-17T17:41:52.261Z,71.96
2023-01-17T17:44:20.328Z,71.09
2023-01-17T17:46:49.703Z,70.36
2023-01-17T17:49:17.713Z,72.03
2023-01-17T17:51:45.699Z,72.39
2023-01-17T17:54:15.905Z,72.37
2023-01-17T17:56:47.553Z,71.86
2023-01-17T17:59:20.237Z,71.64
2023-01-17T18:01:48.746Z,71.21
2023-01-17T18:04:16.874Z,71.20
2023-01-17T18:06:45.008Z,73.53
2023-01-17T18:09:13.606Z,73.90
2023-01-17T18:11:43.284Z,73.62
2023-01-17T18:14:14.525Z,73.93
2023-01-17T18:16:44.927Z,73.49
2023-01-17T18:19:15.849Z,74.00
2023-01-17T18:21:43.870Z,73.73
2023-01-17T18:24:14.734Z,74.58
2023-01-17T18:26:51.167Z,73.91
2023-01-17T18:29:21.567Z,74.32
2023-01-17T18:31:51.051Z,74.15
2023-01-17T18:34:27.165Z,73.51
2023-01-17T18:36:58.029Z,73.22
2023-01-17T18:39:29.662Z,73.50
2023-01-17T18:42:09.102Z,72.97
2023-01-17T18:48:45.378Z,73.02
2023-01-17T18:51:16.720Z,72.65
2023-01-17T18:53:46.392Z,72.74
2023-01-17T18:56:18.198Z,72.61
2023-01-17T18:58:50.402Z,72.59
2023-01-17T19:01:20.988Z,72.58
2023-01-17T19:03:51.376Z,72.81
2023-01-17T19:06:25.960Z,72.92
2023-01-17T19:08:54.845Z,73.22
2023-01-17T19:11:23.976Z,73.16
2023-01-17T19:13:53.255Z,73.08
2023-01-17T19:16:29.594Z,73.25
2023-01-17T19:19:02.690Z,73.34
2023-01-17T19:21:31.825Z,73.16
2023-01-17T19:24:00.195Z,73.46
2023-01-17T19:26:28.818Z,73.53
2023-01-17T19:29:00.936Z,73.43
2023-01-17T19:31:30.466Z,73.72
2023-01-17T19:33:59.772Z,73.73
2023-01-17T19:36:33.856Z,73.74
2023-01-17T19:39:06.140Z,73.68
2023-01-17T19:41:36.330Z,73.46
2023-01-17T19:44:09.615Z,73.49
2023-01-17T19:46:38.186Z,73.78
2023-01-17T19:49:07.730Z,73.41
2023-01-17T19:51:36.353Z,73.82
2023-01-17T19:54:06.541Z,73.71
2023-01-17T19:56:35.175Z,73.79
2023-01-17T19:59:03.635Z,74.04
2023-01-17T20:01:33.723Z,73.68
2023-01-17T20:04:03.483Z,74.09
2023-01-17T20:06:34.644Z,74.05
2023-01-17T20:09:03.406Z,73.94
2023-01-17T20:11:31.947Z,73.83
2023-01-17T20:14:00.461Z,73.85
2023-01-17T20:16:31.504Z,73.95
2023-01-17T20:19:00.285Z,73.83
2023-01-17T20:21:29.613Z,74.20
2023-01-17T20:23:59.492Z,74.24
2023-01-17T20:26:36.379Z,74.66
2023-01-17T20:29:10.626Z,74.51
2023-01-17T20:31:41.174Z,74.46
2023-01-17T20:34:12.149Z,74.31
2023-01-17T20:36:43.730Z,74.31
2023-01-17T20:39:14.155Z,74.57
2023-01-17T20:41:44.721Z,74.58
2023-01-17T20:44:15.666Z,74.59
2023-01-17T20:46:44.601Z,74.18
2023-01-17T20:49:15.755Z,74.57
2023-01-17T20:51:45.292Z,74.90
2023-01-17T20:54:16.181Z,75.38
2023-01-17T20:56:47.293Z,75.72
2023-01-17T20:59:18.031Z,75.47
2023-01-17T21:01:46.491Z,75.65
2023-01-17T21:05:03.907Z,75.53
2023-01-17T21:07:32.187Z,75.74
2023-01-17T21:10:00.140Z,75.98
2023-01-17T21:12:28.130Z,75.96
2023-01-17T21:15:36.049Z,75.82
2023-01-17T21:18:04.000Z,75.90
2023-01-17T21:20:34.798Z,75.94
2023-01-17T21:23:02.732Z,76.09
2023-01-17T21:25:30.632Z,75.94
2023-01-17T21:27:58.944Z,76.42
2023-01-17T21:30:27.083Z,77.02
2023-01-17T21:32:55.099Z,77.51
2023-01-17T21:35:23.159Z,77.40
2023-01-17T21:37:51.543Z,77.73
2023-01-17T21:40:19.823Z,77.66
2023-01-17T21:42:48.451Z,78.09
2023-01-17T21:45:16.762Z,78.98
2023-01-17T21:47:44.989Z,79.55
2023-01-17T21:50:25.085Z,79.91
2023-01-17T21:53:03.654Z,80.00
2023-01-17T21:55:50.524Z,79.97
2023-01-17T21:58:37.520Z,80.43
2023-01-17T22:01:17.779Z,80.46
2023-01-17T22:03:49.543Z,81.06
2023-01-17T22:06:19.545Z,80.86
2023-01-17T22:08:47.773Z,81.26
2023-01-17T22:11:18.654Z,81.04
2023-01-17T22:13:46.746Z,80.93
2023-01-17T22:16:17.013Z,80.86
2023-01-17T22:18:45.891Z,80.83
2023-01-17T22:21:22.605Z,80.78
2023-01-17T22:23:56.522Z,80.90
2023-01-17T22:27:44.420Z,80.80
2023-01-17T22:30:13.193Z,80.58
2023-01-17T22:32:41.743Z,80.67
2023-01-17T22:35:09.721Z,80.65
2023-01-17T22:37:37.651Z,80.73
2023-01-17T22:40:06.158Z,80.80
2023-01-17T22:42:34.561Z,80.95
2023-01-17T22:45:02.553Z,80.89
2023-01-17T22:47:30.793Z,81.53
2023-01-17T22:49:58.988Z,81.02
2023-01-17T22:52:26.959Z,80.88
2023-01-17T22:54:54.913Z,80.80
2023-01-17T22:57:23.353Z,80.70
2023-01-17T22:59:51.389Z,80.33
2023-01-17T23:02:19.357Z,80.57
2023-01-17T23:04:49.052Z,80.63
2023-01-17T23:07:17.127Z,80.50
2023-01-17T23:09:45.014Z,80.53
2023-01-17T23:12:12.962Z,80.39
2023-01-17T23:14:59.469Z,80.34
2023-01-17T23:17:45.611Z,80.49
2023-01-17T23:20:13.535Z,80.43
2023-01-17T23:22:41.495Z,80.47
2023-01-17T23:25:12.075Z,80.68
2023-01-17T23:28:00.855Z,80.74
2023-01-17T23:30:34.609Z,80.86
2023-01-17T23:33:08.298Z,80.91
2023-01-17T23:35:41.707Z,80.66
2023-01-17T23:38:28.625Z,81.12
2023-01-17T23:41:20.003Z,81.03
2023-01-17T23:43:56.260Z,81.21
2023-01-17T23:46:25.716Z,81.20
2023-01-17T23:48:55.206Z,81.39
2023-01-17T23:51:23.348Z,81.29
2023-01-17T23:53:57.463Z,81.16
2023-01-17T23:56:25.515Z,81.14
2023-01-17T23:58:53.382Z,81.28
